sensor_id;sensor_type;location;lat;lon;timestamp;P1;durP1;ratioP1;P2;durP2;ratioP2
48241;SDS011;34041;51.812;4.622;2022-07-29T00:02:29;3.50;;;1.10;;
48241;SDS011;34041;51.812;4.622;2022-07-29T00:05:31;5.95;;;1.20;;
48241;SDS011;34041;51.812;4.622;2022-07-29T00:08:32;4.50;;;1.10;;
48241;SDS011;34041;51.812;4.622;2022-07-29T00:11:32;2.47;;;1.10;;
48241;SDS011;34041;51.812;4.622;2022-07-29T00:14:32;3.88;;;0.90;;
48241;SDS011;34041;51.812;4.622;2022-07-29T00:17:32;1.93;;;1.10;;
48241;SDS011;34041;51.812;4.622;2022-07-29T00:20:34;2.63;;;1.13;;
48241;SDS011;34041;51.812;4.622;2022-07-29T00:23:34;1.85;;;0.95;;
48241;SDS011;34041;51.812;4.622;2022-07-29T00:26:35;3.35;;;1.50;;
48241;SDS011;34041;51.812;4.622;2022-07-29T00:29:35;2.70;;;1.10;;
48241;SDS011;34041;51.812;4.622;2022-07-29T00:32:36;5.03;;;1.63;;
48241;SDS011;34041;51.812;4.622;2022-07-29T00:35:36;2.40;;;1.13;;
48241;SDS011;34041;51.812;4.622;2022-07-29T00:38:45;3.72;;;1.30;;
48241;SDS011;34041;51.812;4.622;2022-07-29T00:41:45;3.28;;;1.20;;
48241;SDS011;34041;51.812;4.622;2022-07-29T00:44:46;3.10;;;0.90;;
48241;SDS011;34041;51.812;4.622;2022-07-29T00:47:46;3.43;;;1.10;;
48241;SDS011;34041;51.812;4.622;2022-07-29T00:50:46;1.47;;;0.87;;
48241;SDS011;34041;51.812;4.622;2022-07-29T00:53:48;2.63;;;1.08;;
48241;SDS011;34041;51.812;4.622;2022-07-29T00:56:50;3.35;;;1.52;;
48241;SDS011;34041;51.812;4.622;2022-07-29T00:59:51;8.30;;;1.10;;
48241;SDS011;34041;51.812;4.622;2022-07-29T01:02:51;3.20;;;1.30;;
48241;SDS011;34041;51.812;4.622;2022-07-29T01:05:51;1.67;;;0.90;;
48241;SDS011;34041;51.812;4.622;2022-07-29T01:08:52;4.78;;;0.93;;
48241;SDS011;34041;51.812;4.622;2022-07-29T01:11:52;1.90;;;0.82;;
48241;SDS011;34041;51.812;4.622;2022-07-29T01:14:53;2.50;;;1.08;;
48241;SDS011;34041;51.812;4.622;2022-07-29T01:24:23;4.13;;;1.45;;
48241;SDS011;34041;51.812;4.622;2022-07-29T01:30:33;2.17;;;1.00;;
48241;SDS011;34041;51.812;4.622;2022-07-29T01:33:37;2.80;;;1.20;;
48241;SDS011;34041;51.812;4.622;2022-07-29T01:36:51;2.70;;;1.15;;
48241;SDS011;34041;51.812;4.622;2022-07-29T01:42:55;3.08;;;1.05;;
48241;SDS011;34041;51.812;4.622;2022-07-29T01:45:58;1.65;;;1.00;;
48241;SDS011;34041;51.812;4.622;2022-07-29T01:49:22;3.15;;;0.88;;
48241;SDS011;34041;51.812;4.622;2022-07-29T01:52:38;2.85;;;1.10;;
48241;SDS011;34041;51.812;4.622;2022-07-29T01:55:40;2.08;;;1.10;;
48241;SDS011;34041;51.812;4.622;2022-07-29T01:58:42;2.28;;;1.08;;
48241;SDS011;34041;51.812;4.622;2022-07-29T02:01:43;2.08;;;0.98;;
48241;SDS011;34041;51.812;4.622;2022-07-29T02:04:45;3.15;;;1.58;;
48241;SDS011;34041;51.812;4.622;2022-07-29T02:07:48;2.35;;;1.05;;
48241;SDS011;34041;51.812;4.622;2022-07-29T02:10:49;2.20;;;1.25;;
48241;SDS011;34041;51.812;4.622;2022-07-29T02:13:49;3.80;;;1.27;;
48241;SDS011;34041;51.812;4.622;2022-07-29T02:16:52;2.88;;;1.13;;
48241;SDS011;34041;51.812;4.622;2022-07-29T02:19:55;2.90;;;1.38;;
48241;SDS011;34041;51.812;4.622;2022-07-29T02:22:56;3.47;;;1.40;;
48241;SDS011;34041;51.812;4.622;2022-07-29T02:25:58;3.55;;;1.30;;
48241;SDS011;34041;51.812;4.622;2022-07-29T02:28:59;2.53;;;1.23;;
48241;SDS011;34041;51.812;4.622;2022-07-29T02:32:00;2.75;;;1.10;;
48241;SDS011;34041;51.812;4.622;2022-07-29T02:35:01;3.30;;;1.02;;
48241;SDS011;34041;51.812;4.622;2022-07-29T02:38:01;2.03;;;1.08;;
48241;SDS011;34041;51.812;4.622;2022-07-29T02:41:28;2.38;;;0.93;;
48241;SDS011;34041;51.812;4.622;2022-07-29T02:44:29;2.08;;;1.13;;
48241;SDS011;34041;51.812;4.622;2022-07-29T02:50:30;2.67;;;1.25;;
48241;SDS011;34041;51.812;4.622;2022-07-29T02:53:33;2.92;;;1.30;;
48241;SDS011;34041;51.812;4.622;2022-07-29T02:56:33;2.35;;;1.30;;
48241;SDS011;34041;51.812;4.622;2022-07-29T02:59:37;2.15;;;0.93;;
48241;SDS011;34041;51.812;4.622;2022-07-29T03:02:42;2.42;;;1.02;;
48241;SDS011;34041;51.812;4.622;2022-07-29T03:05:43;2.45;;;1.08;;
48241;SDS011;34041;51.812;4.622;2022-07-29T03:08:44;1.80;;;1.13;;
48241;SDS011;34041;51.812;4.622;2022-07-29T03:11:44;4.10;;;1.20;;
48241;SDS011;34041;51.812;4.622;2022-07-29T03:14:45;2.42;;;1.20;;
48241;SDS011;34041;51.812;4.622;2022-07-29T03:17:46;2.88;;;1.52;;
48241;SDS011;34041;51.812;4.622;2022-07-29T03:20:46;1.75;;;1.23;;
48241;SDS011;34041;51.812;4.622;2022-07-29T03:23:47;4.10;;;1.60;;
48241;SDS011;34041;51.812;4.622;2022-07-29T03:26:47;3.67;;;1.20;;
48241;SDS011;34041;51.812;4.622;2022-07-29T03:29:47;5.03;;;1.60;;
48241;SDS011;34041;51.812;4.622;2022-07-29T03:32:48;2.93;;;1.17;;
48241;SDS011;34041;51.812;4.622;2022-07-29T03:35:48;3.58;;;1.30;;
48241;SDS011;34041;51.812;4.622;2022-07-29T03:38:48;3.30;;;1.20;;
48241;SDS011;34041;51.812;4.622;2022-07-29T03:41:49;2.38;;;1.17;;
48241;SDS011;34041;51.812;4.622;2022-07-29T03:44:52;5.32;;;1.48;;
48241;SDS011;34041;51.812;4.622;2022-07-29T03:47:53;2.75;;;1.02;;
48241;SDS011;34041;51.812;4.622;2022-07-29T03:50:55;3.55;;;0.98;;
48241;SDS011;34041;51.812;4.622;2022-07-29T03:53:55;1.90;;;1.08;;
48241;SDS011;34041;51.812;4.622;2022-07-29T03:56:55;4.82;;;1.52;;
48241;SDS011;34041;51.812;4.622;2022-07-29T03:59:59;4.30;;;1.48;;
48241;SDS011;34041;51.812;4.622;2022-07-29T04:03:01;3.10;;;2.40;;
48241;SDS011;34041;51.812;4.622;2022-07-29T04:06:02;2.90;;;1.52;;
48241;SDS011;34041;51.812;4.622;2022-07-29T04:09:03;2.65;;;1.88;;
48241;SDS011;34041;51.812;4.622;2022-07-29T04:12:03;2.97;;;1.07;;
48241;SDS011;34041;51.812;4.622;2022-07-29T04:15:04;4.53;;;1.52;;
48241;SDS011;34041;51.812;4.622;2022-07-29T04:18:04;3.65;;;1.15;;
48241;SDS011;34041;51.812;4.622;2022-07-29T04:21:05;3.70;;;2.05;;
48241;SDS011;34041;51.812;4.622;2022-07-29T04:24:06;3.83;;;1.30;;
48241;SDS011;34041;51.812;4.622;2022-07-29T04:27:06;4.18;;;1.77;;
48241;SDS011;34041;51.812;4.622;2022-07-29T04:30:06;2.60;;;1.57;;
48241;SDS011;34041;51.812;4.622;2022-07-29T04:33:07;3.60;;;1.48;;
48241;SDS011;34041;51.812;4.622;2022-07-29T04:36:07;3.70;;;1.80;;
48241;SDS011;34041;51.812;4.622;2022-07-29T04:39:08;4.25;;;1.52;;
48241;SDS011;34041;51.812;4.622;2022-07-29T04:42:08;3.23;;;1.67;;
48241;SDS011;34041;51.812;4.622;2022-07-29T04:45:08;3.27;;;1.47;;
48241;SDS011;34041;51.812;4.622;2022-07-29T04:48:09;6.45;;;1.75;;
48241;SDS011;34041;51.812;4.622;2022-07-29T04:51:09;3.95;;;1.80;;
48241;SDS011;34041;51.812;4.622;2022-07-29T04:54:09;4.07;;;1.70;;
48241;SDS011;34041;51.812;4.622;2022-07-29T04:57:09;4.27;;;1.70;;
48241;SDS011;34041;51.812;4.622;2022-07-29T05:00:10;3.93;;;2.00;;
48241;SDS011;34041;51.812;4.622;2022-07-29T05:03:10;3.47;;;1.75;;
48241;SDS011;34041;51.812;4.622;2022-07-29T05:06:10;3.80;;;1.83;;
48241;SDS011;34041;51.812;4.622;2022-07-29T05:09:10;3.90;;;1.55;;
48241;SDS011;34041;51.812;4.622;2022-07-29T05:12:11;4.10;;;1.70;;
48241;SDS011;34041;51.812;4.622;2022-07-29T05:15:11;7.55;;;1.50;;
48241;SDS011;34041;51.812;4.622;2022-07-29T05:18:12;3.13;;;1.57;;
48241;SDS011;34041;51.812;4.622;2022-07-29T05:21:12;2.72;;;1.33;;
48241;SDS011;34041;51.812;4.622;2022-07-29T05:24:12;5.27;;;1.80;;
48241;SDS011;34041;51.812;4.622;2022-07-29T05:27:13;3.28;;;1.40;;
48241;SDS011;34041;51.812;4.622;2022-07-29T05:30:13;3.90;;;1.80;;
48241;SDS011;34041;51.812;4.622;2022-07-29T05:33:13;4.90;;;1.58;;
48241;SDS011;34041;51.812;4.622;2022-07-29T05:36:13;2.90;;;1.60;;
48241;SDS011;34041;51.812;4.622;2022-07-29T05:39:14;2.73;;;1.67;;
48241;SDS011;34041;51.812;4.622;2022-07-29T05:42:14;3.72;;;1.95;;
48241;SDS011;34041;51.812;4.622;2022-07-29T05:45:14;3.47;;;1.57;;
48241;SDS011;34041;51.812;4.622;2022-07-29T05:48:14;4.13;;;1.60;;
48241;SDS011;34041;51.812;4.622;2022-07-29T05:51:15;2.77;;;1.77;;
48241;SDS011;34041;51.812;4.622;2022-07-29T05:54:15;7.10;;;1.92;;
48241;SDS011;34041;51.812;4.622;2022-07-29T05:57:19;5.13;;;2.20;;
48241;SDS011;34041;51.812;4.622;2022-07-29T06:00:19;4.30;;;2.05;;
48241;SDS011;34041;51.812;4.622;2022-07-29T06:03:19;5.07;;;2.03;;
48241;SDS011;34041;51.812;4.622;2022-07-29T06:06:20;4.50;;;2.10;;
48241;SDS011;34041;51.812;4.622;2022-07-29T06:09:20;4.27;;;1.70;;
48241;SDS011;34041;51.812;4.622;2022-07-29T06:12:20;3.20;;;1.83;;
48241;SDS011;34041;51.812;4.622;2022-07-29T06:15:20;3.80;;;1.63;;
48241;SDS011;34041;51.812;4.622;2022-07-29T06:18:21;5.10;;;1.67;;
48241;SDS011;34041;51.812;4.622;2022-07-29T06:21:23;7.18;;;2.42;;
48241;SDS011;34041;51.812;4.622;2022-07-29T06:24:24;2.35;;;1.65;;
48241;SDS011;34041;51.812;4.622;2022-07-29T06:27:24;5.22;;;1.90;;
48241;SDS011;34041;51.812;4.622;2022-07-29T06:30:24;4.47;;;1.90;;
48241;SDS011;34041;51.812;4.622;2022-07-29T06:33:24;3.07;;;1.77;;
48241;SDS011;34041;51.812;4.622;2022-07-29T06:36:25;4.17;;;1.93;;
48241;SDS011;34041;51.812;4.622;2022-07-29T06:39:25;5.13;;;1.47;;
48241;SDS011;34041;51.812;4.622;2022-07-29T06:42:25;4.38;;;2.10;;
48241;SDS011;34041;51.812;4.622;2022-07-29T06:45:25;3.70;;;1.63;;
48241;SDS011;34041;51.812;4.622;2022-07-29T06:48:25;3.30;;;2.10;;
48241;SDS011;34041;51.812;4.622;2022-07-29T06:51:26;4.05;;;2.03;;
48241;SDS011;34041;51.812;4.622;2022-07-29T06:54:27;5.50;;;1.80;;
48241;SDS011;34041;51.812;4.622;2022-07-29T06:57:27;2.90;;;1.43;;
48241;SDS011;34041;51.812;4.622;2022-07-29T07:00:27;2.80;;;1.50;;
48241;SDS011;34041;51.812;4.622;2022-07-29T07:03:28;2.90;;;1.67;;
48241;SDS011;34041;51.812;4.622;2022-07-29T07:06:28;4.90;;;1.60;;
48241;SDS011;34041;51.812;4.622;2022-07-29T07:09:28;5.77;;;2.13;;
48241;SDS011;34041;51.812;4.622;2022-07-29T07:12:28;3.67;;;2.07;;
48241;SDS011;34041;51.812;4.622;2022-07-29T07:15:29;4.22;;;1.50;;
48241;SDS011;34041;51.812;4.622;2022-07-29T07:18:29;6.67;;;1.67;;
48241;SDS011;34041;51.812;4.622;2022-07-29T07:21:29;5.05;;;2.33;;
48241;SDS011;34041;51.812;4.622;2022-07-29T07:24:30;2.88;;;1.65;;
48241;SDS011;34041;51.812;4.622;2022-07-29T07:27:30;4.20;;;2.80;;
48241;SDS011;34041;51.812;4.622;2022-07-29T07:30:30;3.73;;;2.00;;
48241;SDS011;34041;51.812;4.622;2022-07-29T07:33:31;5.65;;;1.75;;
48241;SDS011;34041;51.812;4.622;2022-07-29T07:36:31;6.30;;;2.10;;
48241;SDS011;34041;51.812;4.622;2022-07-29T07:39:31;3.77;;;2.23;;
48241;SDS011;34041;51.812;4.622;2022-07-29T07:42:31;2.83;;;1.57;;
48241;SDS011;34041;51.812;4.622;2022-07-29T07:45:32;4.30;;;2.38;;
48241;SDS011;34041;51.812;4.622;2022-07-29T07:48:32;5.10;;;1.95;;
48241;SDS011;34041;51.812;4.622;2022-07-29T07:51:34;3.28;;;2.25;;
48241;SDS011;34041;51.812;4.622;2022-07-29T07:54:34;4.00;;;2.28;;
48241;SDS011;34041;51.812;4.622;2022-07-29T07:57:35;4.03;;;1.85;;
48241;SDS011;34041;51.812;4.622;2022-07-29T08:00:36;4.93;;;1.77;;
48241;SDS011;34041;51.812;4.622;2022-07-29T08:03:36;4.83;;;2.47;;
48241;SDS011;34041;51.812;4.622;2022-07-29T08:06:36;5.63;;;2.00;;
48241;SDS011;34041;51.812;4.622;2022-07-29T08:09:37;4.63;;;2.40;;
48241;SDS011;34041;51.812;4.622;2022-07-29T08:12:37;3.43;;;2.20;;
48241;SDS011;34041;51.812;4.622;2022-07-29T08:15:38;4.50;;;2.28;;
48241;SDS011;34041;51.812;4.622;2022-07-29T08:18:39;5.45;;;2.20;;
48241;SDS011;34041;51.812;4.622;2022-07-29T08:21:40;4.78;;;2.35;;
48241;SDS011;34041;51.812;4.622;2022-07-29T08:24:41;3.72;;;2.53;;
48241;SDS011;34041;51.812;4.622;2022-07-29T08:27:46;3.85;;;1.95;;
48241;SDS011;34041;51.812;4.622;2022-07-29T08:30:47;5.55;;;2.45;;
48241;SDS011;34041;51.812;4.622;2022-07-29T08:33:47;4.90;;;2.10;;
48241;SDS011;34041;51.812;4.622;2022-07-29T08:36:47;4.33;;;1.97;;
48241;SDS011;34041;51.812;4.622;2022-07-29T08:39:47;4.20;;;1.97;;
48241;SDS011;34041;51.812;4.622;2022-07-29T08:42:47;8.18;;;2.60;;
48241;SDS011;34041;51.812;4.622;2022-07-29T08:45:48;6.63;;;2.60;;
48241;SDS011;34041;51.812;4.622;2022-07-29T08:48:49;8.05;;;2.50;;
48241;SDS011;34041;51.812;4.622;2022-07-29T08:51:50;8.50;;;3.00;;
48241;SDS011;34041;51.812;4.622;2022-07-29T08:54:50;6.70;;;2.83;;
48241;SDS011;34041;51.812;4.622;2022-07-29T08:57:52;6.38;;;2.63;;
48241;SDS011;34041;51.812;4.622;2022-07-29T09:00:53;12.60;;;2.83;;
48241;SDS011;34041;51.812;4.622;2022-07-29T09:03:56;8.20;;;2.20;;
48241;SDS011;34041;51.812;4.622;2022-07-29T09:06:57;4.38;;;2.00;;
48241;SDS011;34041;51.812;4.622;2022-07-29T09:09:59;4.75;;;1.98;;
48241;SDS011;34041;51.812;4.622;2022-07-29T09:12:59;3.75;;;1.73;;
48241;SDS011;34041;51.812;4.622;2022-07-29T09:15:59;4.15;;;2.42;;
48241;SDS011;34041;51.812;4.622;2022-07-29T09:19:00;6.00;;;2.58;;
48241;SDS011;34041;51.812;4.622;2022-07-29T09:22:01;4.67;;;1.90;;
48241;SDS011;34041;51.812;4.622;2022-07-29T09:25:01;3.30;;;2.03;;
48241;SDS011;34041;51.812;4.622;2022-07-29T09:28:05;4.03;;;2.10;;
48241;SDS011;34041;51.812;4.622;2022-07-29T09:31:05;7.90;;;2.10;;
48241;SDS011;34041;51.812;4.622;2022-07-29T09:34:08;2.38;;;1.55;;
48241;SDS011;34041;51.812;4.622;2022-07-29T09:37:08;4.90;;;1.77;;
48241;SDS011;34041;51.812;4.622;2022-07-29T09:40:13;3.95;;;1.70;;
48241;SDS011;34041;51.812;4.622;2022-07-29T09:46:13;4.75;;;1.73;;
48241;SDS011;34041;51.812;4.622;2022-07-29T09:49:14;4.25;;;2.42;;
48241;SDS011;34041;51.812;4.622;2022-07-29T09:52:14;2.90;;;1.50;;
48241;SDS011;34041;51.812;4.622;2022-07-29T09:55:15;4.50;;;1.40;;
48241;SDS011;34041;51.812;4.622;2022-07-29T09:58:19;4.00;;;1.48;;
48241;SDS011;34041;51.812;4.622;2022-07-29T10:01:27;4.07;;;1.67;;
48241;SDS011;34041;51.812;4.622;2022-07-29T10:04:40;3.22;;;1.50;;
48241;SDS011;34041;51.812;4.622;2022-07-29T10:07:47;2.67;;;1.33;;
48241;SDS011;34041;51.812;4.622;2022-07-29T10:10:48;5.13;;;1.55;;
48241;SDS011;34041;51.812;4.622;2022-07-29T10:13:48;2.77;;;1.57;;
48241;SDS011;34041;51.812;4.622;2022-07-29T10:16:48;5.30;;;1.48;;
48241;SDS011;34041;51.812;4.622;2022-07-29T10:19:49;2.57;;;1.23;;
48241;SDS011;34041;51.812;4.622;2022-07-29T10:22:49;3.70;;;1.30;;
48241;SDS011;34041;51.812;4.622;2022-07-29T10:25:50;3.65;;;1.65;;
48241;SDS011;34041;51.812;4.622;2022-07-29T10:28:50;4.57;;;1.27;;
48241;SDS011;34041;51.812;4.622;2022-07-29T10:31:58;5.10;;;1.43;;
48241;SDS011;34041;51.812;4.622;2022-07-29T10:35:13;3.20;;;1.30;;
48241;SDS011;34041;51.812;4.622;2022-07-29T10:41:34;2.75;;;1.05;;
48241;SDS011;34041;51.812;4.622;2022-07-29T10:44:39;3.92;;;1.38;;
48241;SDS011;34041;51.812;4.622;2022-07-29T10:47:39;4.00;;;1.45;;
48241;SDS011;34041;51.812;4.622;2022-07-29T10:50:53;3.15;;;1.30;;
48241;SDS011;34041;51.812;4.622;2022-07-29T10:53:54;4.87;;;1.40;;
48241;SDS011;34041;51.812;4.622;2022-07-29T10:56:54;3.42;;;1.50;;
48241;SDS011;34041;51.812;4.622;2022-07-29T11:03:01;2.30;;;1.45;;
48241;SDS011;34041;51.812;4.622;2022-07-29T11:06:01;3.15;;;1.65;;
48241;SDS011;34041;51.812;4.622;2022-07-29T11:09:18;2.23;;;1.27;;
48241;SDS011;34041;51.812;4.622;2022-07-29T11:15:52;5.78;;;1.55;;
48241;SDS011;34041;51.812;4.622;2022-07-29T11:22:30;6.00;;;1.58;;
48241;SDS011;34041;51.812;4.622;2022-07-29T11:25:31;5.90;;;1.40;;
48241;SDS011;34041;51.812;4.622;2022-07-29T11:28:31;3.92;;;1.73;;
48241;SDS011;34041;51.812;4.622;2022-07-29T11:31:39;2.75;;;1.45;;
48241;SDS011;34041;51.812;4.622;2022-07-29T11:34:41;3.10;;;1.42;;
48241;SDS011;34041;51.812;4.622;2022-07-29T11:37:41;3.05;;;1.33;;
48241;SDS011;34041;51.812;4.622;2022-07-29T11:40:41;2.67;;;1.40;;
48241;SDS011;34041;51.812;4.622;2022-07-29T11:44:02;2.88;;;1.20;;
48241;SDS011;34041;51.812;4.622;2022-07-29T11:47:02;4.30;;;1.70;;
48241;SDS011;34041;51.812;4.622;2022-07-29T11:50:03;4.43;;;1.25;;
48241;SDS011;34041;51.812;4.622;2022-07-29T11:53:10;4.00;;;1.95;;
48241;SDS011;34041;51.812;4.622;2022-07-29T11:56:12;3.58;;;1.63;;
48241;SDS011;34041;51.812;4.622;2022-07-29T11:59:13;3.60;;;1.40;;
48241;SDS011;34041;51.812;4.622;2022-07-29T12:02:14;2.70;;;1.88;;
48241;SDS011;34041;51.812;4.622;2022-07-29T12:05:16;5.88;;;1.25;;
48241;SDS011;34041;51.812;4.622;2022-07-29T12:08:25;4.07;;;1.40;;
48241;SDS011;34041;51.812;4.622;2022-07-29T12:11:27;4.35;;;1.40;;
48241;SDS011;34041;51.812;4.622;2022-07-29T12:17:29;2.50;;;1.33;;
48241;SDS011;34041;51.812;4.622;2022-07-29T12:20:29;9.07;;;2.08;;
48241;SDS011;34041;51.812;4.622;2022-07-29T12:23:33;3.65;;;1.70;;
48241;SDS011;34041;51.812;4.622;2022-07-29T12:26:33;3.00;;;1.50;;
48241;SDS011;34041;51.812;4.622;2022-07-29T12:29:34;3.72;;;1.73;;
48241;SDS011;34041;51.812;4.622;2022-07-29T12:32:35;2.50;;;1.63;;
48241;SDS011;34041;51.812;4.622;2022-07-29T12:35:35;3.55;;;1.45;;
48241;SDS011;34041;51.812;4.622;2022-07-29T12:38:36;3.70;;;1.98;;
48241;SDS011;34041;51.812;4.622;2022-07-29T12:41:36;11.18;;;2.40;;
48241;SDS011;34041;51.812;4.622;2022-07-29T12:44:43;2.65;;;1.65;;
48241;SDS011;34041;51.812;4.622;2022-07-29T12:47:53;5.25;;;1.83;;
48241;SDS011;34041;51.812;4.622;2022-07-29T12:54:07;3.03;;;1.83;;
48241;SDS011;34041;51.812;4.622;2022-07-29T12:57:07;4.82;;;1.92;;
48241;SDS011;34041;51.812;4.622;2022-07-29T13:00:09;5.35;;;2.30;;
48241;SDS011;34041;51.812;4.622;2022-07-29T13:03:10;3.00;;;1.60;;
48241;SDS011;34041;51.812;4.622;2022-07-29T13:09:44;3.55;;;1.42;;
48241;SDS011;34041;51.812;4.622;2022-07-29T13:16:23;4.18;;;2.10;;
48241;SDS011;34041;51.812;4.622;2022-07-29T13:19:32;3.28;;;1.45;;
48241;SDS011;34041;51.812;4.622;2022-07-29T13:22:33;4.95;;;1.40;;
48241;SDS011;34041;51.812;4.622;2022-07-29T13:25:33;2.87;;;1.50;;
48241;SDS011;34041;51.812;4.622;2022-07-29T13:28:34;2.70;;;1.40;;
48241;SDS011;34041;51.812;4.622;2022-07-29T13:31:35;3.50;;;1.17;;
48241;SDS011;34041;51.812;4.622;2022-07-29T13:34:35;3.10;;;1.73;;
48241;SDS011;34041;51.812;4.622;2022-07-29T13:37:35;4.00;;;1.63;;
48241;SDS011;34041;51.812;4.622;2022-07-29T13:40:38;6.07;;;2.00;;
48241;SDS011;34041;51.812;4.622;2022-07-29T13:43:38;4.17;;;1.97;;
48241;SDS011;34041;51.812;4.622;2022-07-29T13:46:39;5.07;;;2.43;;
48241;SDS011;34041;51.812;4.622;2022-07-29T13:49:39;4.80;;;2.80;;
48241;SDS011;34041;51.812;4.622;2022-07-29T13:52:39;3.07;;;2.10;;
48241;SDS011;34041;51.812;4.622;2022-07-29T13:55:39;3.60;;;2.37;;
48241;SDS011;34041;51.812;4.622;2022-07-29T13:58:40;4.60;;;2.27;;
48241;SDS011;34041;51.812;4.622;2022-07-29T14:01:40;3.93;;;2.00;;
48241;SDS011;34041;51.812;4.622;2022-07-29T14:04:42;8.10;;;2.40;;
48241;SDS011;34041;51.812;4.622;2022-07-29T14:07:42;3.33;;;2.20;;
48241;SDS011;34041;51.812;4.622;2022-07-29T14:10:42;5.90;;;2.57;;
48241;SDS011;34041;51.812;4.622;2022-07-29T14:13:42;6.97;;;2.47;;
48241;SDS011;34041;51.812;4.622;2022-07-29T14:16:42;6.72;;;1.90;;
48241;SDS011;34041;51.812;4.622;2022-07-29T14:19:43;5.53;;;2.53;;
48241;SDS011;34041;51.812;4.622;2022-07-29T14:22:43;5.63;;;2.73;;
48241;SDS011;34041;51.812;4.622;2022-07-29T14:25:43;5.20;;;2.50;;
48241;SDS011;34041;51.812;4.622;2022-07-29T14:28:43;6.83;;;4.60;;
48241;SDS011;34041;51.812;4.622;2022-07-29T14:31:44;8.23;;;4.38;;
48241;SDS011;34041;51.812;4.622;2022-07-29T14:34:44;9.77;;;4.23;;
48241;SDS011;34041;51.812;4.622;2022-07-29T14:37:44;5.37;;;3.13;;
48241;SDS011;34041;51.812;4.622;2022-07-29T14:40:45;5.40;;;2.80;;
48241;SDS011;34041;51.812;4.622;2022-07-29T14:43:46;8.98;;;4.68;;
48241;SDS011;34041;51.812;4.622;2022-07-29T14:46:46;7.87;;;5.03;;
48241;SDS011;34041;51.812;4.622;2022-07-29T14:49:46;7.97;;;4.40;;
48241;SDS011;34041;51.812;4.622;2022-07-29T14:52:47;6.37;;;2.73;;
48241;SDS011;34041;51.812;4.622;2022-07-29T14:55:47;8.60;;;3.50;;
48241;SDS011;34041;51.812;4.622;2022-07-29T14:58:47;7.95;;;3.45;;
48241;SDS011;34041;51.812;4.622;2022-07-29T15:01:47;3.97;;;2.17;;
48241;SDS011;34041;51.812;4.622;2022-07-29T15:04:48;8.03;;;2.23;;
48241;SDS011;34041;51.812;4.622;2022-07-29T15:07:48;8.73;;;2.55;;
48241;SDS011;34041;51.812;4.622;2022-07-29T15:10:48;4.93;;;2.70;;
48241;SDS011;34041;51.812;4.622;2022-07-29T15:13:49;3.10;;;2.37;;
48241;SDS011;34041;51.812;4.622;2022-07-29T15:16:49;6.23;;;2.43;;
48241;SDS011;34041;51.812;4.622;2022-07-29T15:19:49;3.88;;;1.85;;
48241;SDS011;34041;51.812;4.622;2022-07-29T15:22:49;3.77;;;2.23;;
48241;SDS011;34041;51.812;4.622;2022-07-29T15:25:49;4.67;;;1.80;;
48241;SDS011;34041;51.812;4.622;2022-07-29T15:28:50;4.03;;;2.00;;
48241;SDS011;34041;51.812;4.622;2022-07-29T15:31:50;6.10;;;2.83;;
48241;SDS011;34041;51.812;4.622;2022-07-29T15:34:50;4.00;;;1.73;;
48241;SDS011;34041;51.812;4.622;2022-07-29T15:37:50;6.53;;;1.93;;
48241;SDS011;34041;51.812;4.622;2022-07-29T15:40:50;3.90;;;1.63;;
48241;SDS011;34041;51.812;4.622;2022-07-29T15:43:51;4.50;;;1.67;;
48241;SDS011;34041;51.812;4.622;2022-07-29T15:46:51;7.17;;;1.97;;
48241;SDS011;34041;51.812;4.622;2022-07-29T15:50:04;3.60;;;1.70;;
48241;SDS011;34041;51.812;4.622;2022-07-29T15:53:04;7.63;;;2.35;;
48241;SDS011;34041;51.812;4.622;2022-07-29T15:56:04;6.47;;;2.73;;
48241;SDS011;34041;51.812;4.622;2022-07-29T15:59:05;4.90;;;1.95;;
48241;SDS011;34041;51.812;4.622;2022-07-29T16:02:05;4.37;;;1.70;;
48241;SDS011;34041;51.812;4.622;2022-07-29T16:05:05;3.22;;;1.52;;
48241;SDS011;34041;51.812;4.622;2022-07-29T16:08:06;5.82;;;2.15;;
48241;SDS011;34041;51.812;4.622;2022-07-29T16:11:06;3.97;;;1.92;;
48241;SDS011;34041;51.812;4.622;2022-07-29T16:14:06;4.47;;;2.27;;
48241;SDS011;34041;51.812;4.622;2022-07-29T16:17:06;3.58;;;1.98;;
48241;SDS011;34041;51.812;4.622;2022-07-29T16:20:07;4.03;;;1.70;;
48241;SDS011;34041;51.812;4.622;2022-07-29T16:23:07;5.28;;;1.73;;
48241;SDS011;34041;51.812;4.622;2022-07-29T16:26:09;4.20;;;1.85;;
48241;SDS011;34041;51.812;4.622;2022-07-29T16:29:09;6.33;;;2.53;;
48241;SDS011;34041;51.812;4.622;2022-07-29T16:32:10;5.20;;;1.80;;
48241;SDS011;34041;51.812;4.622;2022-07-29T16:35:10;4.23;;;1.93;;
48241;SDS011;34041;51.812;4.622;2022-07-29T16:38:10;5.03;;;1.75;;
48241;SDS011;34041;51.812;4.622;2022-07-29T16:41:11;4.85;;;1.85;;
48241;SDS011;34041;51.812;4.622;2022-07-29T16:44:11;4.80;;;2.55;;
48241;SDS011;34041;51.812;4.622;2022-07-29T16:47:11;5.27;;;1.83;;
48241;SDS011;34041;51.812;4.622;2022-07-29T16:50:12;6.60;;;2.37;;
48241;SDS011;34041;51.812;4.622;2022-07-29T16:53:12;4.45;;;2.13;;
48241;SDS011;34041;51.812;4.622;2022-07-29T16:56:12;5.40;;;2.40;;
48241;SDS011;34041;51.812;4.622;2022-07-29T16:59:12;4.97;;;2.10;;
48241;SDS011;34041;51.812;4.622;2022-07-29T17:02:13;4.50;;;2.22;;
48241;SDS011;34041;51.812;4.622;2022-07-29T17:05:13;3.05;;;1.90;;
48241;SDS011;34041;51.812;4.622;2022-07-29T17:08:14;2.97;;;1.92;;
48241;SDS011;34041;51.812;4.622;2022-07-29T17:11:14;6.67;;;2.00;;
48241;SDS011;34041;51.812;4.622;2022-07-29T17:14:15;7.70;;;2.43;;
48241;SDS011;34041;51.812;4.622;2022-07-29T17:17:15;6.23;;;2.40;;
48241;SDS011;34041;51.812;4.622;2022-07-29T17:20:15;8.40;;;2.47;;
48241;SDS011;34041;51.812;4.622;2022-07-29T17:23:16;5.00;;;2.43;;
48241;SDS011;34041;51.812;4.622;2022-07-29T17:26:16;3.57;;;1.67;;
48241;SDS011;34041;51.812;4.622;2022-07-29T17:29:17;7.13;;;2.20;;
48241;SDS011;34041;51.812;4.622;2022-07-29T17:32:17;4.72;;;2.22;;
48241;SDS011;34041;51.812;4.622;2022-07-29T17:35:18;7.93;;;2.53;;
48241;SDS011;34041;51.812;4.622;2022-07-29T17:38:36;3.60;;;1.80;;
48241;SDS011;34041;51.812;4.622;2022-07-29T17:41:37;5.63;;;1.90;;
48241;SDS011;34041;51.812;4.622;2022-07-29T17:44:39;4.38;;;2.22;;
48241;SDS011;34041;51.812;4.622;2022-07-29T17:47:40;4.47;;;2.33;;
48241;SDS011;34041;51.812;4.622;2022-07-29T17:50:40;3.53;;;1.40;;
48241;SDS011;34041;51.812;4.622;2022-07-29T17:53:41;4.70;;;2.13;;
48241;SDS011;34041;51.812;4.622;2022-07-29T17:56:41;4.10;;;1.67;;
48241;SDS011;34041;51.812;4.622;2022-07-29T17:59:41;7.03;;;2.50;;
48241;SDS011;34041;51.812;4.622;2022-07-29T18:02:41;3.03;;;1.83;;
48241;SDS011;34041;51.812;4.622;2022-07-29T18:05:42;4.40;;;1.75;;
48241;SDS011;34041;51.812;4.622;2022-07-29T18:08:43;5.30;;;2.47;;
48241;SDS011;34041;51.812;4.622;2022-07-29T18:11:46;5.43;;;2.05;;
48241;SDS011;34041;51.812;4.622;2022-07-29T18:14:47;3.47;;;1.83;;
48241;SDS011;34041;51.812;4.622;2022-07-29T18:17:47;4.27;;;2.07;;
48241;SDS011;34041;51.812;4.622;2022-07-29T18:20:48;5.17;;;1.53;;
48241;SDS011;34041;51.812;4.622;2022-07-29T18:23:48;3.40;;;2.50;;
48241;SDS011;34041;51.812;4.622;2022-07-29T18:26:51;4.47;;;1.80;;
48241;SDS011;34041;51.812;4.622;2022-07-29T18:29:51;3.70;;;1.83;;
48241;SDS011;34041;51.812;4.622;2022-07-29T18:32:53;3.47;;;1.42;;
48241;SDS011;34041;51.812;4.622;2022-07-29T18:35:53;4.90;;;1.97;;
48241;SDS011;34041;51.812;4.622;2022-07-29T18:38:53;6.70;;;1.87;;
48241;SDS011;34041;51.812;4.622;2022-07-29T18:41:54;3.83;;;1.70;;
48241;SDS011;34041;51.812;4.622;2022-07-29T18:44:54;4.37;;;1.60;;
48241;SDS011;34041;51.812;4.622;2022-07-29T18:47:55;3.53;;;1.50;;
48241;SDS011;34041;51.812;4.622;2022-07-29T18:50:55;6.32;;;3.58;;
48241;SDS011;34041;51.812;4.622;2022-07-29T18:53:55;6.40;;;2.97;;
48241;SDS011;34041;51.812;4.622;2022-07-29T18:56:55;6.30;;;2.83;;
48241;SDS011;34041;51.812;4.622;2022-07-29T18:59:56;4.43;;;2.20;;